sensor_id;sensor_type;location;lat;lon;timestamp;pressure;altitude;pressure_sealevel;temperature;humidity
62864;BME280;48954;59.950;11.014;2023-06-22T00:02:24;99312.13;;;15.50;87.53
62864;BME280;48954;59.950;11.014;2023-06-22T00:04:52;99315.85;;;15.48;87.54
62864;BME280;48954;59.950;11.014;2023-06-22T00:07:19;99318.55;;;15.46;87.68
62864;BME280;48954;59.950;11.014;2023-06-22T00:09:48;99321.76;;;15.42;87.56
62864;BME280;48954;59.950;11.014;2023-06-22T00:12:15;99330.23;;;15.40;87.68
62864;BME280;48954;59.950;11.014;2023-06-22T00:14:43;99334.27;;;15.38;87.69
62864;BME280;48954;59.950;11.014;2023-06-22T00:17:11;99329.83;;;15.38;87.78
62864;BME280;48954;59.950;11.014;2023-06-22T00:19:38;99332.77;;;15.36;87.93
62864;BME280;48954;59.950;11.014;2023-06-22T00:22:07;99333.33;;;15.35;87.98
62864;BME280;48954;59.950;11.014;2023-06-22T00:24:34;99331.10;;;15.36;88.07
62864;BME280;48954;59.950;11.014;2023-06-22T00:27:16;99329.67;;;15.35;88.07
62864;BME280;48954;59.950;11.014;2023-06-22T00:29:43;99332.77;;;15.35;88.10
62864;BME280;48954;59.950;11.014;2023-06-22T00:32:10;99333.56;;;15.33;88.06
62864;BME280;48954;59.950;11.014;2023-06-22T00:34:39;99334.92;;;15.33;87.94
62864;BME280;48954;59.950;11.014;2023-06-22T00:37:05;99336.41;;;15.32;88.04
62864;BME280;48954;59.950;11.014;2023-06-22T00:39:33;99336.05;;;15.31;88.13
62864;BME280;48954;59.950;11.014;2023-06-22T00:42:01;99337.00;;;15.30;88.16
62864;BME280;48954;59.950;11.014;2023-06-22T00:44:28;99332.09;;;15.29;88.09
62864;BME280;48954;59.950;11.014;2023-06-22T00:47:05;99325.69;;;15.27;88.10
62864;BME280;48954;59.950;11.014;2023-06-22T00:49:33;99328.86;;;15.25;88.13
62864;BME280;48954;59.950;11.014;2023-06-22T00:52:16;99328.14;;;15.23;88.24
62864;BME280;48954;59.950;11.014;2023-06-22T00:54:43;99329.73;;;15.22;88.17
62864;BME280;48954;59.950;11.014;2023-06-22T00:57:15;99331.31;;;15.21;88.43
62864;BME280;48954;59.950;11.014;2023-06-22T00:59:48;99338.04;;;15.21;88.30
62864;BME280;48954;59.950;11.014;2023-06-22T01:02:15;99328.06;;;15.20;88.34
62864;BME280;48954;59.950;11.014;2023-06-22T01:04:44;99324.27;;;15.20;88.35
62864;BME280;48954;59.950;11.014;2023-06-22T01:12:34;99335.94;;;15.13;88.27
62864;BME280;48954;59.950;11.014;2023-06-22T01:15:08;99346.77;;;15.11;88.27
62864;BME280;48954;59.950;11.014;2023-06-22T01:17:40;99355.48;;;15.10;88.29
62864;BME280;48954;59.950;11.014;2023-06-22T01:20:10;99360.63;;;15.11;88.28
62864;BME280;48954;59.950;11.014;2023-06-22T01:31:16;99373.13;;;15.09;87.94
62864;BME280;48954;59.950;11.014;2023-06-22T01:33:46;99375.74;;;15.08;87.78
62864;BME280;48954;59.950;11.014;2023-06-22T01:36:16;99381.06;;;15.06;87.66
62864;BME280;48954;59.950;11.014;2023-06-22T01:38:44;99382.17;;;15.05;87.65
62864;BME280;48954;59.950;11.014;2023-06-22T01:41:12;99379.96;;;15.02;87.40
62864;BME280;48954;59.950;11.014;2023-06-22T01:43:40;99379.25;;;14.98;87.15
62864;BME280;48954;59.950;11.014;2023-06-22T01:46:08;99382.88;;;14.94;87.28
62864;BME280;48954;59.950;11.014;2023-06-22T01:48:34;99378.94;;;14.93;87.30
62864;BME280;48954;59.950;11.014;2023-06-22T01:51:02;99376.89;;;14.92;87.36
62864;BME280;48954;59.950;11.014;2023-06-22T01:53:29;99381.48;;;14.91;87.27
62864;BME280;48954;59.950;11.014;2023-06-22T01:55:58;99386.79;;;14.92;87.29
62864;BME280;48954;59.950;11.014;2023-06-22T01:58:33;99387.34;;;14.92;87.26
62864;BME280;48954;59.950;11.014;2023-06-22T02:01:11;99388.67;;;14.91;87.23
62864;BME280;48954;59.950;11.014;2023-06-22T02:04:01;99389.63;;;14.90;87.04
62864;BME280;48954;59.950;11.014;2023-06-22T02:06:37;99396.36;;;14.89;87.06
62864;BME280;48954;59.950;11.014;2023-06-22T02:09:09;99399.36;;;14.86;87.07
62864;BME280;48954;59.950;11.014;2023-06-22T02:11:40;99397.62;;;14.85;86.84
62864;BME280;48954;59.950;11.014;2023-06-22T02:14:08;99402.52;;;14.83;86.85
62864;BME280;48954;59.950;11.014;2023-06-22T02:16:35;99399.59;;;14.81;86.80
62864;BME280;48954;59.950;11.014;2023-06-22T02:19:23;99400.80;;;14.78;86.71
62864;BME280;48954;59.950;11.014;2023-06-22T02:22:04;99403.00;;;14.76;86.67
62864;BME280;48954;59.950;11.014;2023-06-22T02:24:31;99403.71;;;14.73;86.55
62864;BME280;48954;59.950;11.014;2023-06-22T02:26:58;99401.09;;;14.71;86.52
62864;BME280;48954;59.950;11.014;2023-06-22T02:29:35;99403.54;;;14.67;86.32
62864;BME280;48954;59.950;11.014;2023-06-22T02:32:02;99404.11;;;14.63;86.29
62864;BME280;48954;59.950;11.014;2023-06-22T02:34:29;99402.20;;;14.61;85.96
62864;BME280;48954;59.950;11.014;2023-06-22T02:36:56;99407.73;;;14.58;86.06
62864;BME280;48954;59.950;11.014;2023-06-22T02:39:24;99407.58;;;14.54;85.90
62864;BME280;48954;59.950;11.014;2023-06-22T02:41:54;99408.61;;;14.51;85.83
62864;BME280;48954;59.950;11.014;2023-06-22T02:44:21;99410.42;;;14.48;85.75
62864;BME280;48954;59.950;11.014;2023-06-22T02:46:49;99416.50;;;14.46;85.73
62864;BME280;48954;59.950;11.014;2023-06-22T02:49:17;99414.13;;;14.45;85.72
62864;BME280;48954;59.950;11.014;2023-06-22T02:51:47;99415.46;;;14.43;85.67
62864;BME280;48954;59.950;11.014;2023-06-22T02:54:14;99423.52;;;14.43;85.64
62864;BME280;48954;59.950;11.014;2023-06-22T02:56:43;99421.15;;;14.42;85.52
62864;BME280;48954;59.950;11.014;2023-06-22T02:59:10;99428.66;;;14.42;85.41
62864;BME280;48954;59.950;11.014;2023-06-22T03:01:37;99428.81;;;14.40;85.37
62864;BME280;48954;59.950;11.014;2023-06-22T03:04:07;99427.21;;;14.37;85.08
62864;BME280;48954;59.950;11.014;2023-06-22T03:06:33;99426.26;;;14.35;85.03
62864;BME280;48954;59.950;11.014;2023-06-22T03:09:04;99433.38;;;14.36;84.99
62864;BME280;48954;59.950;11.014;2023-06-22T03:11:31;99437.55;;;14.36;84.93
62864;BME280;48954;59.950;11.014;2023-06-22T03:13:59;99438.20;;;14.36;84.67
62864;BME280;48954;59.950;11.014;2023-06-22T03:16:27;99447.05;;;14.38;84.54
62864;BME280;48954;59.950;11.014;2023-06-22T03:19:03;99448.74;;;14.39;84.42
62864;BME280;48954;59.950;11.014;2023-06-22T03:21:33;99451.84;;;14.41;84.33
62864;BME280;48954;59.950;11.014;2023-06-22T03:23:59;99450.64;;;14.41;84.06
62864;BME280;48954;59.950;11.014;2023-06-22T03:26:34;99453.64;;;14.42;84.11
62864;BME280;48954;59.950;11.014;2023-06-22T03:29:01;99447.08;;;14.43;84.06
62864;BME280;48954;59.950;11.014;2023-06-22T03:31:28;99444.80;;;14.45;83.81
62864;BME280;48954;59.950;11.014;2023-06-22T03:33:56;99453.58;;;14.46;83.84
62864;BME280;48954;59.950;11.014;2023-06-22T03:36:23;99451.21;;;14.49;83.79
62864;BME280;48954;59.950;11.014;2023-06-22T03:38:51;99451.23;;;14.52;83.80
62864;BME280;48954;59.950;11.014;2023-06-22T03:41:18;99449.95;;;14.55;83.57
62864;BME280;48954;59.950;11.014;2023-06-22T03:43:48;99444.27;;;14.59;83.40
62864;BME280;48954;59.950;11.014;2023-06-22T03:46:16;99446.10;;;14.63;83.28
62864;BME280;48954;59.950;11.014;2023-06-22T03:48:43;99446.33;;;14.69;83.09
62864;BME280;48954;59.950;11.014;2023-06-22T03:51:11;99447.05;;;14.72;82.90
62864;BME280;48954;59.950;11.014;2023-06-22T03:53:37;99450.30;;;14.75;82.67
62864;BME280;48954;59.950;11.014;2023-06-22T03:56:19;99455.29;;;14.78;82.49
62864;BME280;48954;59.950;11.014;2023-06-22T03:58:46;99455.13;;;14.80;82.31
62864;BME280;48954;59.950;11.014;2023-06-22T04:01:15;99459.46;;;14.83;82.12
62864;BME280;48954;59.950;11.014;2023-06-22T04:03:56;99453.86;;;14.86;82.19
62864;BME280;48954;59.950;11.014;2023-06-22T04:06:25;99449.04;;;14.89;82.12
62864;BME280;48954;59.950;11.014;2023-06-22T04:09:01;99442.72;;;14.92;82.04
62864;BME280;48954;59.950;11.014;2023-06-22T04:11:28;99443.80;;;14.96;81.81
62864;BME280;48954;59.950;11.014;2023-06-22T04:13:54;99442.30;;;14.98;81.58
62864;BME280;48954;59.950;11.014;2023-06-22T04:16:21;99445.79;;;15.01;81.42
62864;BME280;48954;59.950;11.014;2023-06-22T04:18:48;99443.18;;;15.05;81.11
62864;BME280;48954;59.950;11.014;2023-06-22T04:21:16;99446.09;;;15.08;80.99
62864;BME280;48954;59.950;11.014;2023-06-22T04:23:56;99442.54;;;15.14;80.83
62864;BME280;48954;59.950;11.014;2023-06-22T04:26:23;99441.83;;;15.18;80.58
62864;BME280;48954;59.950;11.014;2023-06-22T04:28:50;99439.52;;;15.22;80.28
62864;BME280;48954;59.950;11.014;2023-06-22T04:31:25;99437.30;;;15.25;79.95
62864;BME280;48954;59.950;11.014;2023-06-22T04:33:56;99437.77;;;15.30;79.83
62864;BME280;48954;59.950;11.014;2023-06-22T04:36:24;99440.20;;;15.35;79.64
62864;BME280;48954;59.950;11.014;2023-06-22T04:38:58;99436.95;;;15.38;79.24
62864;BME280;48954;59.950;11.014;2023-06-22T04:41:25;99441.16;;;15.44;79.10
62864;BME280;48954;59.950;11.014;2023-06-22T04:43:51;99441.45;;;15.47;78.50
62864;BME280;48954;59.950;11.014;2023-06-22T04:46:19;99441.12;;;15.51;78.18
62864;BME280;48954;59.950;11.014;2023-06-22T04:48:46;99442.80;;;15.56;77.96
62864;BME280;48954;59.950;11.014;2023-06-22T04:51:27;99444.52;;;15.64;77.52
62864;BME280;48954;59.950;11.014;2023-06-22T04:53:54;99448.38;;;15.71;77.05
62864;BME280;48954;59.950;11.014;2023-06-22T04:56:21;99448.77;;;15.79;76.55
62864;BME280;48954;59.950;11.014;2023-06-22T04:58:55;99451.24;;;15.87;76.36
62864;BME280;48954;59.950;11.014;2023-06-22T05:01:21;99453.52;;;15.96;76.04
62864;BME280;48954;59.950;11.014;2023-06-22T05:03:48;99459.27;;;16.04;75.59
62864;BME280;48954;59.950;11.014;2023-06-22T05:06:29;99465.57;;;16.12;75.11
62864;BME280;48954;59.950;11.014;2023-06-22T05:08:57;99459.36;;;16.18;74.83
62864;BME280;48954;59.950;11.014;2023-06-22T05:11:28;99458.38;;;16.25;74.58
62864;BME280;48954;59.950;11.014;2023-06-22T05:14:09;99456.27;;;16.33;73.98
62864;BME280;48954;59.950;11.014;2023-06-22T05:16:40;99456.15;;;16.39;73.66
62864;BME280;48954;59.950;11.014;2023-06-22T05:19:28;99459.83;;;16.49;73.29
62864;BME280;48954;59.950;11.014;2023-06-22T05:22:14;99469.44;;;16.60;72.96
62864;BME280;48954;59.950;11.014;2023-06-22T05:25:19;99481.92;;;16.71;72.34
62864;BME280;48954;59.950;11.014;2023-06-22T05:27:51;99486.23;;;16.78;71.75
62864;BME280;48954;59.950;11.014;2023-06-22T05:30:33;99489.91;;;16.87;71.18
62864;BME280;48954;59.950;11.014;2023-06-22T05:33:13;99488.83;;;16.92;70.87
62864;BME280;48954;59.950;11.014;2023-06-22T05:35:47;99494.65;;;17.00;70.96
62864;BME280;48954;59.950;11.014;2023-06-22T05:38:14;99507.45;;;17.08;70.49
62864;BME280;48954;59.950;11.014;2023-06-22T05:40:44;99506.80;;;17.18;70.23
62864;BME280;48954;59.950;11.014;2023-06-22T05:43:24;99510.53;;;17.27;69.74
62864;BME280;48954;59.950;11.014;2023-06-22T05:45:57;99512.98;;;17.29;68.97
62864;BME280;48954;59.950;11.014;2023-06-22T05:48:38;99515.73;;;17.32;69.12
62864;BME280;48954;59.950;11.014;2023-06-22T05:53:56;99523.21;;;17.51;68.74
62864;BME280;48954;59.950;11.014;2023-06-22T05:59:19;99520.30;;;17.65;68.42
62864;BME280;48954;59.950;11.014;2023-06-22T06:02:12;99518.81;;;17.71;68.08
62864;BME280;48954;59.950;11.014;2023-06-22T06:05:07;99522.77;;;17.72;67.09
62864;BME280;48954;59.950;11.014;2023-06-22T06:07:37;99526.80;;;17.76;67.17
62864;BME280;48954;59.950;11.014;2023-06-22T06:10:25;99533.45;;;17.85;67.01
62864;BME280;48954;59.950;11.014;2023-06-22T06:13:06;99534.43;;;17.91;66.63
62864;BME280;48954;59.950;11.014;2023-06-22T06:15:47;99531.98;;;17.96;65.79
62864;BME280;48954;59.950;11.014;2023-06-22T06:18:15;99532.50;;;18.01;65.61
62864;BME280;48954;59.950;11.014;2023-06-22T06:20:41;99529.48;;;18.05;64.84
62864;BME280;48954;59.950;11.014;2023-06-22T06:23:08;99528.83;;;18.07;64.70
62864;BME280;48954;59.950;11.014;2023-06-22T06:25:41;99533.84;;;18.14;64.88
62864;BME280;48954;59.950;11.014;2023-06-22T06:28:26;99537.77;;;18.25;64.48
62864;BME280;48954;59.950;11.014;2023-06-22T06:31:09;99538.77;;;18.28;63.62
62864;BME280;48954;59.950;11.014;2023-06-22T06:33:51;99529.55;;;18.32;63.34
62864;BME280;48954;59.950;11.014;2023-06-22T06:36:55;99529.32;;;18.40;62.79
62864;BME280;48954;59.950;11.014;2023-06-22T06:40:00;99533.97;;;18.48;62.49
62864;BME280;48954;59.950;11.014;2023-06-22T06:42:48;99538.41;;;18.56;61.78
62864;BME280;48954;59.950;11.014;2023-06-22T06:45:42;99540.29;;;18.60;61.04
62864;BME280;48954;59.950;11.014;2023-06-22T06:48:46;99546.61;;;18.64;60.69
62864;BME280;48954;59.950;11.014;2023-06-22T06:51:31;99552.97;;;18.65;60.11
62864;BME280;48954;59.950;11.014;2023-06-22T06:54:43;99553.66;;;18.67;59.83
62864;BME280;48954;59.950;11.014;2023-06-22T06:57:28;99557.38;;;18.73;59.72
62864;BME280;48954;59.950;11.014;2023-06-22T07:00:12;99551.59;;;18.78;59.57
62864;BME280;48954;59.950;11.014;2023-06-22T07:02:40;99553.55;;;18.86;59.53
62864;BME280;48954;59.950;11.014;2023-06-22T07:05:11;99563.34;;;18.97;59.38
62864;BME280;48954;59.950;11.014;2023-06-22T07:07:58;99561.72;;;19.04;58.92
62864;BME280;48954;59.950;11.014;2023-06-22T07:10:38;99558.77;;;19.09;58.73
62864;BME280;48954;59.950;11.014;2023-06-22T07:13:05;99554.30;;;19.20;59.04
62864;BME280;48954;59.950;11.014;2023-06-22T07:15:33;99553.48;;;19.31;58.21
62864;BME280;48954;59.950;11.014;2023-06-22T07:18:12;99556.52;;;19.35;57.75
62864;BME280;48954;59.950;11.014;2023-06-22T07:20:52;99560.80;;;19.37;58.00
62864;BME280;48954;59.950;11.014;2023-06-22T07:23:19;99565.09;;;19.43;57.40
62864;BME280;48954;59.950;11.014;2023-06-22T07:26:00;99563.23;;;19.44;56.88
62864;BME280;48954;59.950;11.014;2023-06-22T07:28:33;99569.40;;;19.42;56.79
62864;BME280;48954;59.950;11.014;2023-06-22T07:31:07;99567.55;;;19.49;56.90
62864;BME280;48954;59.950;11.014;2023-06-22T07:33:39;99576.88;;;19.59;56.70
62864;BME280;48954;59.950;11.014;2023-06-22T07:36:08;99578.03;;;19.66;56.19
62864;BME280;48954;59.950;11.014;2023-06-22T07:38:36;99581.91;;;19.72;56.32
62864;BME280;48954;59.950;11.014;2023-06-22T07:41:04;99584.96;;;19.85;56.29
62864;BME280;48954;59.950;11.014;2023-06-22T07:43:31;99589.61;;;19.96;55.80
62864;BME280;48954;59.950;11.014;2023-06-22T07:45:57;99588.39;;;20.06;55.74
62864;BME280;48954;59.950;11.014;2023-06-22T07:48:28;99592.85;;;20.15;55.57
62864;BME280;48954;59.950;11.014;2023-06-22T07:51:25;99593.55;;;20.20;55.38
62864;BME280;48954;59.950;11.014;2023-06-22T07:53:54;99594.21;;;20.31;55.26
62864;BME280;48954;59.950;11.014;2023-06-22T07:56:39;99594.98;;;20.39;54.60
62864;BME280;48954;59.950;11.014;2023-06-22T07:59:20;99591.33;;;20.42;54.55
62864;BME280;48954;59.950;11.014;2023-06-22T08:01:49;99592.19;;;20.50;55.03
62864;BME280;48954;59.950;11.014;2023-06-22T08:04:34;99595.29;;;20.66;54.72
62864;BME280;48954;59.950;11.014;2023-06-22T08:07:01;99594.20;;;20.72;54.05
62864;BME280;48954;59.950;11.014;2023-06-22T08:09:31;99594.41;;;20.81;53.76
62864;BME280;48954;59.950;11.014;2023-06-22T08:11:59;99598.33;;;20.85;53.62
62864;BME280;48954;59.950;11.014;2023-06-22T08:14:27;99597.79;;;20.84;53.40
62864;BME280;48954;59.950;11.014;2023-06-22T08:16:54;99599.20;;;20.85;52.85
62864;BME280;48954;59.950;11.014;2023-06-22T08:19:20;99597.38;;;20.84;53.19
62864;BME280;48954;59.950;11.014;2023-06-22T08:21:51;99593.67;;;20.92;53.27
62864;BME280;48954;59.950;11.014;2023-06-22T08:24:23;99590.48;;;21.00;52.93
62864;BME280;48954;59.950;11.014;2023-06-22T08:26:51;99602.14;;;21.00;52.28
62864;BME280;48954;59.950;11.014;2023-06-22T08:29:24;99594.58;;;20.95;51.84
62864;BME280;48954;59.950;11.014;2023-06-22T08:34:16;99596.33;;;20.80;51.72
62864;BME280;48954;59.950;11.014;2023-06-22T08:36:44;99602.23;;;20.84;51.86
62864;BME280;48954;59.950;11.014;2023-06-22T08:39:11;99602.14;;;20.93;51.59
62864;BME280;48954;59.950;11.014;2023-06-22T08:41:38;99598.40;;;20.95;51.15
62864;BME280;48954;59.950;11.014;2023-06-22T08:44:05;99596.08;;;20.96;51.53
62864;BME280;48954;59.950;11.014;2023-06-22T08:46:32;99592.46;;;21.08;50.94
62864;BME280;48954;59.950;11.014;2023-06-22T08:49:02;99591.98;;;21.15;50.44
62864;BME280;48954;59.950;11.014;2023-06-22T08:51:29;99592.55;;;21.22;50.16
62864;BME280;48954;59.950;11.014;2023-06-22T08:54:02;99597.10;;;21.29;49.80
62864;BME280;48954;59.950;11.014;2023-06-22T08:56:44;99601.09;;;21.32;49.42
62864;BME280;48954;59.950;11.014;2023-06-22T08:59:17;99596.30;;;21.32;49.29
62864;BME280;48954;59.950;11.014;2023-06-22T09:01:51;99596.79;;;21.39;49.63
62864;BME280;48954;59.950;11.014;2023-06-22T09:04:22;99598.50;;;21.48;49.27
62864;BME280;48954;59.950;11.014;2023-06-22T09:07:03;99591.42;;;21.49;49.01
62864;BME280;48954;59.950;11.014;2023-06-22T09:09:33;99594.26;;;21.54;49.22
62864;BME280;48954;59.950;11.014;2023-06-22T09:12:06;99600.66;;;21.66;48.76
62864;BME280;48954;59.950;11.014;2023-06-22T09:14:39;99602.52;;;21.71;48.12
62864;BME280;48954;59.950;11.014;2023-06-22T09:17:20;99601.52;;;21.70;47.92
62864;BME280;48954;59.950;11.014;2023-06-22T09:19:55;99610.27;;;21.76;47.70
62864;BME280;48954;59.950;11.014;2023-06-22T09:22:28;99604.40;;;21.73;47.54
62864;BME280;48954;59.950;11.014;2023-06-22T09:24:58;99607.80;;;21.75;47.59
62864;BME280;48954;59.950;11.014;2023-06-22T09:27:27;99612.68;;;21.75;47.43
62864;BME280;48954;59.950;11.014;2023-06-22T09:30:19;99611.21;;;21.85;47.76
62864;BME280;48954;59.950;11.014;2023-06-22T09:33:00;99610.11;;;21.91;47.08
62864;BME280;48954;59.950;11.014;2023-06-22T09:35:27;99609.19;;;21.87;46.83
62864;BME280;48954;59.950;11.014;2023-06-22T09:37:54;99603.45;;;21.83;46.81
62864;BME280;48954;59.950;11.014;2023-06-22T09:40:23;99604.11;;;21.91;46.86
62864;BME280;48954;59.950;11.014;2023-06-22T09:43:09;99614.42;;;21.88;46.37
62864;BME280;48954;59.950;11.014;2023-06-22T09:45:36;99612.42;;;21.76;46.68
62864;BME280;48954;59.950;11.014;2023-06-22T09:48:03;99614.16;;;21.64;46.71
62864;BME280;48954;59.950;11.014;2023-06-22T09:50:33;99609.02;;;21.65;46.52
62864;BME280;48954;59.950;11.014;2023-06-22T09:53:14;99613.47;;;21.69;46.55
62864;BME280;48954;59.950;11.014;2023-06-22T09:55:42;99606.11;;;21.69;47.05
62864;BME280;48954;59.950;11.014;2023-06-22T09:58:12;99607.07;;;21.85;46.64
62864;BME280;48954;59.950;11.014;2023-06-22T10:00:43;99606.16;;;22.05;46.54
62864;BME280;48954;59.950;11.014;2023-06-22T10:03:11;99601.59;;;22.21;46.82
62864;BME280;48954;59.950;11.014;2023-06-22T10:05:39;99610.76;;;22.31;45.77
62864;BME280;48954;59.950;11.014;2023-06-22T10:08:31;99609.58;;;22.27;45.42
62864;BME280;48954;59.950;11.014;2023-06-22T10:10:57;99612.42;;;22.28;45.51
62864;BME280;48954;59.950;11.014;2023-06-22T10:13:24;99610.81;;;22.32;45.10
62864;BME280;48954;59.950;11.014;2023-06-22T10:15:52;99600.43;;;22.36;45.32
62864;BME280;48954;59.950;11.014;2023-06-22T10:18:35;99602.48;;;22.41;45.45
62864;BME280;48954;59.950;11.014;2023-06-22T10:21:11;99596.28;;;22.44;44.88
62864;BME280;48954;59.950;11.014;2023-06-22T10:23:56;99593.95;;;22.45;45.12
62864;BME280;48954;59.950;11.014;2023-06-22T10:26:44;99594.52;;;22.54;45.12
62864;BME280;48954;59.950;11.014;2023-06-22T10:29:28;99599.02;;;22.61;45.15
62864;BME280;48954;59.950;11.014;2023-06-22T10:32:37;99597.89;;;22.69;44.46
62864;BME280;48954;59.950;11.014;2023-06-22T10:35:45;99589.18;;;22.77;44.57
62864;BME280;48954;59.950;11.014;2023-06-22T10:38:26;99585.20;;;22.80;44.81
62864;BME280;48954;59.950;11.014;2023-06-22T10:41:13;99592.52;;;22.94;44.24
62864;BME280;48954;59.950;11.014;2023-06-22T10:44:19;99593.06;;;22.98;43.66
62864;BME280;48954;59.950;11.014;2023-06-22T10:47:10;99597.52;;;22.76;43.89
62864;BME280;48954;59.950;11.014;2023-06-22T10:49:55;99599.89;;;22.75;43.97
62864;BME280;48954;59.950;11.014;2023-06-22T10:52:42;99600.88;;;22.71;43.71
62864;BME280;48954;59.950;11.014;2023-06-22T10:55:27;99599.96;;;22.78;43.85
62864;BME280;48954;59.950;11.014;2023-06-22T11:01:06;99586.20;;;22.80;43.94
62864;BME280;48954;59.950;11.014;2023-06-22T11:03:36;99582.86;;;22.85;44.01
62864;BME280;48954;59.950;11.014;2023-06-22T11:06:03;99586.99;;;22.89;43.80
62864;BME280;48954;59.950;11.014;2023-06-22T11:09:05;99581.16;;;22.97;43.92
62864;BME280;48954;59.950;11.014;2023-06-22T11:11:34;99575.41;;;23.03;43.94
62864;BME280;48954;59.950;11.014;2023-06-22T11:14:07;99583.11;;;23.03;43.55
62864;BME280;48954;59.950;11.014;2023-06-22T11:16:34;99587.40;;;23.01;43.39
62864;BME280;48954;59.950;11.014;2023-06-22T11:19:01;99583.14;;;23.10;43.34
62864;BME280;48954;59.950;11.014;2023-06-22T11:21:35;99578.80;;;23.18;43.20
62864;BME280;48954;59.950;11.014;2023-06-22T11:24:04;99581.45;;;23.24;43.00
62864;BME280;48954;59.950;11.014;2023-06-22T11:26:33;99571.77;;;23.32;43.06
62864;BME280;48954;59.950;11.014;2023-06-22T11:29:13;99578.52;;;23.42;43.07
62864;BME280;48954;59.950;11.014;2023-06-22T11:31:45;99582.36;;;23.49;42.73
62864;BME280;48954;59.950;11.014;2023-06-22T11:34:15;99579.30;;;23.53;42.75
62864;BME280;48954;59.950;11.014;2023-06-22T11:36:45;99577.17;;;23.57;42.91
62864;BME280;48954;59.950;11.014;2023-06-22T11:39:22;99578.84;;;23.57;42.91
62864;BME280;48954;59.950;11.014;2023-06-22T11:42:05;99579.29;;;23.61;42.93
62864;BME280;48954;59.950;11.014;2023-06-22T11:44:32;99578.33;;;23.67;42.94
62864;BME280;48954;59.950;11.014;2023-06-22T11:46:58;99586.72;;;23.73;42.77
62864;BME280;48954;59.950;11.014;2023-06-22T11:49:25;99583.01;;;23.85;42.58
62864;BME280;48954;59.950;11.014;2023-06-22T11:51:51;99578.29;;;23.97;42.33
62864;BME280;48954;59.950;11.014;2023-06-22T11:54:18;99573.02;;;24.00;42.63
62864;BME280;48954;59.950;11.014;2023-06-22T11:56:50;99575.14;;;24.08;42.29
62864;BME280;48954;59.950;11.014;2023-06-22T11:59:17;99573.98;;;24.11;42.24
62864;BME280;48954;59.950;11.014;2023-06-22T12:01:48;99573.60;;;24.13;42.02
62864;BME280;48954;59.950;11.014;2023-06-22T12:04:17;99570.09;;;24.11;41.13
62864;BME280;48954;59.950;11.014;2023-06-22T12:06:44;99574.73;;;24.02;40.62
62864;BME280;48954;59.950;11.014;2023-06-22T12:09:13;99574.63;;;24.03;41.10
62864;BME280;48954;59.950;11.014;2023-06-22T12:11:40;99572.63;;;24.18;41.18
62864;BME280;48954;59.950;11.014;2023-06-22T12:14:06;99572.44;;;24.26;40.88
62864;BME280;48954;59.950;11.014;2023-06-22T12:16:33;99575.88;;;24.31;40.33
62864;BME280;48954;59.950;11.014;2023-06-22T12:21:33;99568.22;;;24.34;40.41
62864;BME280;48954;59.950;11.014;2023-06-22T12:24:37;99568.73;;;24.38;40.06
62864;BME280;48954;59.950;11.014;2023-06-22T12:27:10;99564.70;;;24.34;39.77
62864;BME280;48954;59.950;11.014;2023-06-22T12:29:45;99562.42;;;24.31;39.70
62864;BME280;48954;59.950;11.014;2023-06-22T12:32:20;99563.68;;;24.33;39.81
62864;BME280;48954;59.950;11.014;2023-06-22T12:34:50;99560.00;;;24.40;39.49
62864;BME280;48954;59.950;11.014;2023-06-22T12:40:07;99558.86;;;24.48;39.19
62864;BME280;48954;59.950;11.014;2023-06-22T12:43:17;99557.16;;;24.51;38.24
62864;BME280;48954;59.950;11.014;2023-06-22T12:46:09;99551.39;;;24.52;37.51
62864;BME280;48954;59.950;11.014;2023-06-22T12:51:42;99545.55;;;24.77;37.53
62864;BME280;48954;59.950;11.014;2023-06-22T12:56:38;99535.70;;;24.86;36.48
62864;BME280;48954;59.950;11.014;2023-06-22T12:59:05;99534.50;;;24.78;35.87
62864;BME280;48954;59.950;11.014;2023-06-22T13:01:34;99540.91;;;24.79;35.98
62864;BME280;48954;59.950;11.014;2023-06-22T13:04:18;99525.29;;;24.77;36.32
62864;BME280;48954;59.950;11.014;2023-06-22T13:06:59;99523.14;;;24.91;36.32
62864;BME280;48954;59.950;11.014;2023-06-22T13:09:36;99522.52;;;24.99;35.52
62864;BME280;48954;59.950;11.014;2023-06-22T13:12:05;99521.17;;;25.07;35.97
62864;BME280;48954;59.950;11.014;2023-06-22T13:14:33;99521.71;;;25.15;35.17
62864;BME280;48954;59.950;11.014;2023-06-22T13:17:01;99521.70;;;25.13;34.77
62864;BME280;48954;59.950;11.014;2023-06-22T13:22:31;99529.48;;;25.06;34.17
62864;BME280;48954;59.950;11.014;2023-06-22T13:25:00;99532.92;;;24.96;34.25
62864;BME280;48954;59.950;11.014;2023-06-22T13:27:30;99522.16;;;24.81;34.45
62864;BME280;48954;59.950;11.014;2023-06-22T13:30:00;99517.89;;;24.83;34.53
62864;BME280;48954;59.950;11.014;2023-06-22T13:32:41;99511.25;;;25.02;34.47
62864;BME280;48954;59.950;11.014;2023-06-22T13:35:33;99507.60;;;25.08;34.17
62864;BME280;48954;59.950;11.014;2023-06-22T13:38:14;99510.94;;;25.13;33.85
62864;BME280;48954;59.950;11.014;2023-06-22T13:41:22;99515.67;;;25.15;33.81
62864;BME280;48954;59.950;11.014;2023-06-22T13:44:34;99509.61;;;25.16;33.18
62864;BME280;48954;59.950;11.014;2023-06-22T13:47:06;99519.88;;;25.07;33.75
62864;BME280;48954;59.950;11.014;2023-06-22T13:49:54;99519.87;;;25.04;33.38
62864;BME280;48954;59.950;11.014;2023-06-22T13:53:00;99510.08;;;25.03;33.70
62864;BME280;48954;59.950;11.014;2023-06-22T13:55:40;99504.85;;;25.15;33.86
62864;BME280;48954;59.950;11.014;2023-06-22T13:58:24;99510.88;;;25.22;33.75
62864;BME280;48954;59.950;11.014;2023-06-22T14:53:00;99484.10;;;25.51;30.22
62864;BME280;48954;59.950;11.014;2023-06-22T14:55:56;99489.25;;;25.40;29.46
62864;BME280;48954;59.950;11.014;2023-06-22T14:58:51;99487.03;;;25.33;29.90